Time;durP1;ratioP1;P1;durP2;ratioP2;P2;SDS_P1;SDS_P2;PMS_P1;PMS_P2;Temp;Humidity;BMP_temperature;BMP_pressure;BME280_temperature;BME280_humidity;BME280_pressure;Samples;Min_cycle;Max_cycle;Signal;HPM_P1;HPM_P2
2021/09/09 00:01:23;;;;;;;9.07;5.22;;;19.90;84.00;;;;;;5014868;28;20022;-74
2021/09/09 00:03:49;;;;;;;12.18;5.32;;;19.90;84.00;;;;;;5014535;28;20026;-73
2021/09/09 00:06:14;;;;;;;9.15;5.50;;;19.90;84.00;;;;;;5014699;28;20021;-74
2021/09/09 00:08:40;;;;;;;10.80;5.25;;;19.90;84.00;;;;;;5014996;28;20030;-74
2021/09/09 00:11:06;;;;;;;9.02;5.00;;;19.90;84.00;;;;;;5013995;28;20021;-74
2021/09/09 00:13:31;;;;;;;9.82;4.75;;;19.80;84.50;;;;;;5029736;28;20036;-74
2021/09/09 00:15:57;;;;;;;8.80;5.53;;;19.90;84.00;;;;;;5013855;28;20022;-73
2021/09/09 00:18:23;;;;;;;10.32;5.38;;;19.80;84.00;;;;;;5014497;28;20014;-74
2021/09/09 00:20:49;;;;;;;12.35;6.25;;;19.80;84.10;;;;;;5013394;28;20046;-74
2021/09/09 00:23:15;;;;;;;10.90;6.35;;;19.80;84.10;;;;;;5014519;28;20033;-74
2021/09/09 00:25:40;;;;;;;8.85;5.43;;;19.80;84.30;;;;;;5029402;28;20092;-74
2021/09/09 00:28:06;;;;;;;9.98;4.90;;;19.70;84.40;;;;;;5013481;28;20048;-74
2021/09/09 00:30:32;;;;;;;11.82;5.60;;;19.70;84.40;;;;;;5014495;28;20029;-74
2021/09/09 00:32:57;;;;;;;10.88;5.95;;;19.70;84.50;;;;;;5013613;28;20395;-74
2021/09/09 00:35:23;;;;;;;8.95;5.40;;;19.70;84.60;;;;;;5014197;28;20018;-74
2021/09/09 00:37:49;;;;;;;10.35;5.38;;;19.70;85.30;;;;;;5012862;28;20485;-74
2021/09/09 00:40:14;;;;;;;9.98;5.28;;;19.70;84.70;;;;;;5013647;28;20022;-75
2021/09/09 00:42:41;;;;;;;11.63;5.45;;;19.60;84.80;;;;;;5014054;28;20366;-74
2021/09/09 00:45:08;;;;;;;10.82;6.20;;;19.60;84.90;;;;;;5013131;28;20351;-74
2021/09/09 00:47:33;;;;;;;11.25;5.80;;;19.60;85.00;;;;;;5013991;28;20021;-74
2021/09/09 00:49:59;;;;;;;9.65;5.75;;;19.60;85.00;;;;;;5013098;28;20041;-74
2021/09/09 00:52:25;;;;;;;8.73;5.50;;;19.60;85.00;;;;;;5013962;28;20018;-74
2021/09/09 00:54:51;;;;;;;9.30;4.60;;;19.50;85.10;;;;;;5012253;28;20060;-74
2021/09/09 00:57:17;;;;;;;10.18;5.20;;;19.50;85.20;;;;;;5013466;28;20454;-74
2021/09/09 00:59:45;;;;;;;10.10;5.65;;;19.50;85.20;;;;;;5013665;28;20014;-74
2021/09/09 01:02:11;;;;;;;10.90;6.32;;;19.50;85.20;;;;;;5013101;28;20018;-74
2021/09/09 01:04:37;;;;;;;12.30;6.10;;;19.50;85.30;;;;;;5013724;28;20029;-74
2021/09/09 01:07:03;;;;;;;10.73;5.93;;;19.50;85.40;;;;;;5013090;28;20024;-74
2021/09/09 01:09:30;;;;;;;11.45;5.90;;;19.50;85.30;;;;;;5013920;28;20026;-74
2021/09/09 01:11:55;;;;;;;11.52;6.10;;;19.40;85.20;;;;;;5013098;28;20097;-74
2021/09/09 01:14:21;;;;;;;9.90;5.60;;;19.40;85.20;;;;;;5013616;28;20144;-74
2021/09/09 01:16:48;;;;;;;9.80;5.10;;;19.40;85.30;;;;;;5013681;28;20040;-74
2021/09/09 01:19:15;;;;;;;11.50;6.13;;;19.40;85.40;;;;;;5012882;28;20026;-73
2021/09/09 01:21:42;;;;;;;11.60;5.88;;;19.40;85.40;;;;;;5012146;28;20037;-74
2021/09/09 01:24:19;;;;;;;10.95;6.35;;;19.40;85.40;;;;;;5013236;28;20026;-74
2021/09/09 01:26:51;;;;;;;9.00;5.03;;;19.40;85.40;;;;;;5012475;28;20021;-74
2021/09/09 01:29:17;;;;;;;8.80;5.10;;;19.30;85.40;;;;;;5012719;28;20029;-74
2021/09/09 01:31:43;;;;;;;11.32;5.97;;;19.30;86.00;;;;;;5013164;28;20022;-74
2021/09/09 01:34:08;;;;;;;12.55;6.15;;;19.30;85.50;;;;;;5012545;28;20370;-74
2021/09/09 01:36:34;;;;;;;13.85;6.18;;;19.20;85.40;;;;;;5012921;28;20025;-74
2021/09/09 01:39:00;;;;;;;8.60;4.75;;;19.20;85.50;;;;;;5012461;28;20024;-73
2021/09/09 01:41:26;;;;;;;11.40;5.80;;;19.20;85.60;;;;;;5012838;28;20469;-74
2021/09/09 01:43:51;;;;;;;9.93;5.53;;;19.20;85.60;;;;;;5012643;28;20398;-74
2021/09/09 01:46:17;;;;;;;14.45;6.22;;;19.20;85.70;;;;;;5012255;28;20072;-74
2021/09/09 01:48:43;;;;;;;10.52;5.75;;;19.10;85.70;;;;;;5013356;28;20060;-74
2021/09/09 01:51:08;;;;;;;12.50;5.68;;;19.10;85.70;;;;;;5011254;28;20053;-74
2021/09/09 01:53:34;;;;;;;10.25;5.90;;;19.20;85.80;;;;;;5012537;28;20029;-74
2021/09/09 01:56:00;;;;;;;11.98;6.25;;;19.10;85.70;;;;;;5012217;28;20021;-73
2021/09/09 01:58:26;;;;;;;10.75;5.68;;;19.10;85.70;;;;;;5012447;28;20025;-74
2021/09/09 02:00:51;;;;;;;12.57;6.05;;;19.10;86.40;;;;;;5013078;28;20030;-74
2021/09/09 02:03:17;;;;;;;11.60;6.63;;;19.10;85.80;;;;;;5011951;28;20033;-74
2021/09/09 02:05:43;;;;;;;8.05;5.15;;;19.10;86.40;;;;;;5012809;28;20473;-73
2021/09/09 02:08:08;;;;;;;12.70;6.72;;;19.10;85.80;;;;;;5011719;28;20026;-73
2021/09/09 02:10:34;;;;;;;11.90;6.40;;;19.10;85.80;;;;;;5012241;28;20025;-74
2021/09/09 02:13:00;;;;;;;12.60;6.57;;;19.10;85.80;;;;;;5011674;28;20040;-73
2021/09/09 02:15:26;;;;;;;12.38;5.95;;;19.00;85.80;;;;;;5012476;28;20450;-73
2021/09/09 02:17:51;;;;;;;11.85;5.95;;;19.00;85.80;;;;;;5012623;28;20029;-74
2021/09/09 02:20:17;;;;;;;9.55;5.85;;;19.00;85.80;;;;;;5012225;28;20109;-74
2021/09/09 02:22:43;;;;;;;12.32;6.78;;;19.00;85.90;;;;;;5010898;28;20425;-74
2021/09/09 02:25:09;;;;;;;12.25;6.57;;;18.90;86.00;;;;;;5011569;28;20018;-74
2021/09/09 02:27:35;;;;;;;10.00;5.70;;;18.90;86.10;;;;;;5012710;28;20049;-74
2021/09/09 02:30:01;;;;;;;12.23;6.60;;;18.90;86.10;;;;;;5010484;28;20406;-74
2021/09/09 02:32:26;;;;;;;11.77;6.82;;;18.90;86.20;;;;;;5012255;28;20026;-74
2021/09/09 02:34:52;;;;;;;10.57;6.20;;;18.80;86.20;;;;;;5012282;28;20024;-74
2021/09/09 02:37:18;;;;;;;11.15;5.90;;;18.90;86.30;;;;;;5010415;28;20022;-74
2021/09/09 02:39:46;;;;;;;14.20;7.05;;;18.90;86.30;;;;;;5012285;28;20049;-74
2021/09/09 02:42:13;;;;;;;13.93;6.63;;;18.90;86.40;;;;;;5011565;28;20025;-74
2021/09/09 02:44:39;;;;;;;13.20;6.45;;;18.80;86.40;;;;;;5012155;28;20053;-74
2021/09/09 02:47:04;;;;;;;13.20;6.88;;;18.80;86.40;;;;;;5012005;28;20037;-74
2021/09/09 02:49:30;;;;;;;12.93;7.40;;;18.80;86.40;;;;;;5027480;28;20026;-74
2021/09/09 02:51:56;;;;;;;12.20;6.18;;;18.80;86.50;;;;;;5012207;28;20026;-74
2021/09/09 02:54:22;;;;;;;11.13;6.22;;;18.80;86.50;;;;;;5011783;28;20184;-74
2021/09/09 02:56:47;;;;;;;10.63;6.50;;;18.80;86.60;;;;;;5012115;28;20022;-73
2021/09/09 02:59:13;;;;;;;12.68;6.65;;;18.80;86.70;;;;;;5011174;28;20014;-74
2021/09/09 03:01:39;;;;;;;15.10;6.97;;;18.70;86.70;;;;;;5013081;28;20099;-73
2021/09/09 03:04:05;;;;;;;10.60;5.68;;;18.70;86.80;;;;;;5015371;28;20117;-74
2021/09/09 03:06:31;;;;;;;13.50;6.75;;;18.70;86.90;;;;;;5014784;28;20084;-74
2021/09/09 03:08:57;;;;;;;12.95;6.75;;;18.70;87.00;;;;;;5014589;28;20017;-74
2021/09/09 03:11:22;;;;;;;10.63;5.93;;;18.70;87.00;;;;;;5014945;28;20481;-74
2021/09/09 03:13:48;;;;;;;11.77;5.63;;;18.70;87.10;;;;;;5015673;28;20029;-74
2021/09/09 03:16:14;;;;;;;14.93;6.70;;;18.60;87.10;;;;;;5015201;28;20061;-74
2021/09/09 03:18:40;;;;;;;12.43;6.60;;;18.60;87.10;;;;;;5016010;28;20108;-73
2021/09/09 03:21:05;;;;;;;10.13;6.07;;;18.60;87.20;;;;;;5014661;28;20045;-73
2021/09/09 03:23:31;;;;;;;13.10;6.93;;;18.60;87.20;;;;;;5015585;28;20438;-74
2021/09/09 03:25:57;;;;;;;11.60;5.95;;;18.60;87.30;;;;;;5015571;28;20026;-74
2021/09/09 03:28:22;;;;;;;10.82;6.35;;;18.60;87.30;;;;;;5014850;28;20097;-74
2021/09/09 03:30:48;;;;;;;10.32;6.40;;;18.60;87.30;;;;;;5015428;28;20025;-74
2021/09/09 03:33:14;;;;;;;14.75;6.68;;;18.60;87.40;;;;;;5015060;28;20112;-73
2021/09/09 03:35:40;;;;;;;11.45;6.38;;;18.60;87.40;;;;;;5015163;28;20033;-74
2021/09/09 03:38:05;;;;;;;12.15;6.90;;;18.50;87.40;;;;;;5014156;28;20454;-72
2021/09/09 03:40:31;;;;;;;12.18;6.55;;;18.60;87.50;;;;;;5015137;28;20466;-72
2021/09/09 03:42:57;;;;;;;10.05;5.40;;;18.60;87.50;;;;;;5015135;28;20105;-72
2021/09/09 03:45:22;;;;;;;10.27;6.18;;;18.50;87.50;;;;;;5014642;28;20737;-73
2021/09/09 03:47:48;;;;;;;12.38;6.68;;;18.50;87.50;;;;;;5015379;28;20032;-72
2021/09/09 03:50:14;;;;;;;13.70;7.25;;;18.50;87.60;;;;;;5014670;28;20029;-72
2021/09/09 03:52:40;;;;;;;10.00;6.13;;;18.50;87.70;;;;;;5015304;28;20018;-72
2021/09/09 03:55:06;;;;;;;11.40;6.65;;;18.50;87.80;;;;;;5014393;28;20033;-72
2021/09/09 03:57:32;;;;;;;12.20;6.53;;;18.40;87.80;;;;;;5014689;28;20076;-72
2021/09/09 03:59:58;;;;;;;12.40;6.65;;;18.40;87.80;;;;;;5014911;28;20026;-72
2021/09/09 04:02:23;;;;;;;11.60;7.18;;;18.40;87.80;;;;;;5014056;28;20049;-73
2021/09/09 04:04:49;;;;;;;12.80;7.05;;;18.40;87.90;;;;;;5014489;28;20528;-73
2021/09/09 04:07:15;;;;;;;11.50;6.32;;;18.40;87.90;;;;;;5013667;28;20030;-73
2021/09/09 04:09:40;;;;;;;10.65;6.35;;;18.40;88.00;;;;;;5014626;28;20030;-74
2021/09/09 04:12:06;;;;;;;12.88;6.90;;;18.40;87.90;;;;;;5014359;28;20022;-73
2021/09/09 04:14:33;;;;;;;10.68;6.50;;;18.40;88.00;;;;;;5044511;28;20037;-74
2021/09/09 04:16:59;;;;;;;11.45;7.18;;;18.40;88.10;;;;;;5014562;28;20485;-74
2021/09/09 04:19:25;;;;;;;17.02;10.02;;;18.40;88.10;;;;;;5029013;28;20654;-74
2021/09/09 04:21:52;;;;;;;14.93;8.68;;;18.30;88.10;;;;;;5028814;28;20088;-73
2021/09/09 04:24:20;;;;;;;13.13;7.22;;;18.30;88.10;;;;;;5013503;28;20501;-74
2021/09/09 04:26:46;;;;;;;12.68;7.43;;;18.30;88.90;;;;;;5014130;28;20034;-74
2021/09/09 04:29:12;;;;;;;10.73;6.90;;;18.30;88.30;;;;;;5013313;28;20462;-73
2021/09/09 04:31:38;;;;;;;11.10;6.70;;;18.30;88.30;;;;;;5013587;28;20076;-74
2021/09/09 04:34:04;;;;;;;12.63;7.57;;;18.30;88.30;;;;;;5012303;28;20109;-74
2021/09/09 04:36:30;;;;;;;11.55;6.95;;;18.30;88.20;;;;;;5012603;28;20013;-73
2021/09/09 04:38:55;;;;;;;11.98;6.72;;;18.20;88.20;;;;;;5013508;28;20029;-74
2021/09/09 04:41:21;;;;;;;11.90;6.63;;;18.20;88.30;;;;;;5011498;28;20026;-73
2021/09/09 04:43:47;;;;;;;10.52;6.22;;;18.20;88.40;;;;;;5013671;28;20037;-74
2021/09/09 04:46:13;;;;;;;11.20;6.13;;;18.20;88.30;;;;;;5012696;28;20065;-73
2021/09/09 04:48:38;;;;;;;11.18;6.07;;;18.20;88.40;;;;;;5013324;28;20026;-74
2021/09/09 04:51:04;;;;;;;11.63;6.53;;;18.20;88.40;;;;;;5028649;28;20021;-74
2021/09/09 04:53:30;;;;;;;12.18;7.07;;;18.20;88.50;;;;;;5012508;28;20026;-73
2021/09/09 04:55:56;;;;;;;11.88;7.15;;;18.20;88.50;;;;;;5028587;28;20024;-74
2021/09/09 04:58:22;;;;;;;13.27;7.63;;;18.20;88.50;;;;;;5012715;28;20463;-74
2021/09/09 05:00:48;;;;;;;14.30;7.07;;;18.20;88.50;;;;;;5012920;28;20088;-75
2021/09/09 05:03:14;;;;;;;11.93;7.03;;;18.20;88.60;;;;;;5012526;28;20029;-75
2021/09/09 05:05:40;;;;;;;12.20;6.70;;;18.20;89.20;;;;;;5028496;28;20022;-72
2021/09/09 05:08:07;;;;;;;12.55;7.80;;;18.20;88.50;;;;;;5012108;28;20359;-72
2021/09/09 05:10:32;;;;;;;12.88;7.00;;;18.20;88.50;;;;;;5012877;28;20029;-74
2021/09/09 05:12:58;;;;;;;12.30;7.28;;;18.10;88.50;;;;;;5013565;28;20025;-74
2021/09/09 05:15:24;;;;;;;12.68;7.05;;;18.10;88.50;;;;;;5012744;28;20474;-74
2021/09/09 05:17:50;;;;;;;12.93;6.68;;;18.10;88.60;;;;;;5013245;28;20034;-72
2021/09/09 05:20:16;;;;;;;12.27;7.43;;;18.10;88.60;;;;;;5012417;28;20481;-72
2021/09/09 05:22:41;;;;;;;10.98;6.35;;;18.10;88.60;;;;;;5012668;28;20483;-73
2021/09/09 05:25:07;;;;;;;13.15;7.30;;;18.10;88.60;;;;;;5012162;28;20018;-72
2021/09/09 05:27:33;;;;;;;13.13;7.55;;;18.10;88.60;;;;;;5012098;28;20524;-72
2021/09/09 05:29:59;;;;;;;13.38;6.60;;;18.10;88.60;;;;;;5012877;28;20026;-72
2021/09/09 05:32:25;;;;;;;11.52;7.03;;;18.10;88.60;;;;;;5011205;28;20117;-72
2021/09/09 05:34:50;;;;;;;16.08;7.18;;;18.10;88.60;;;;;;5013014;28;20440;-72
2021/09/09 05:37:16;;;;;;;12.77;7.65;;;18.10;88.60;;;;;;5012400;28;20018;-72
2021/09/09 05:39:42;;;;;;;14.98;7.53;;;18.10;88.60;;;;;;5012965;28;20017;-73
2021/09/09 05:42:08;;;;;;;14.68;8.55;;;18.10;88.60;;;;;;5012886;28;20114;-72
2021/09/09 05:44:33;;;;;;;11.90;7.18;;;18.10;88.60;;;;;;5011895;28;20034;-71
2021/09/09 05:46:59;;;;;;;15.13;7.95;;;18.20;88.60;;;;;;5012392;28;20025;-71
2021/09/09 05:49:25;;;;;;;11.45;6.38;;;18.10;88.50;;;;;;5012149;28;20026;-74
2021/09/09 05:51:50;;;;;;;12.90;6.90;;;18.20;88.70;;;;;;5012767;28;20026;-72
2021/09/09 05:54:16;;;;;;;13.93;7.20;;;18.20;88.70;;;;;;5011872;28;20064;-73
2021/09/09 05:56:42;;;;;;;11.30;6.82;;;18.20;88.70;;;;;;5012386;28;20481;-73
2021/09/09 05:59:07;;;;;;;13.82;7.82;;;18.20;88.60;;;;;;5011319;28;20037;-74
2021/09/09 06:01:35;;;;;;;13.95;7.22;;;18.20;88.70;;;;;;5010738;28;20406;-73
2021/09/09 06:04:01;;;;;;;14.75;6.95;;;18.20;88.70;;;;;;5012707;28;20121;-74
2021/09/09 06:06:27;;;;;;;8.73;5.85;;;18.20;88.60;;;;;;5011916;28;20176;-73
2021/09/09 06:08:53;;;;;;;11.52;6.80;;;18.20;88.50;;;;;;5012537;28;20466;-74
2021/09/09 06:11:18;;;;;;;12.27;7.40;;;18.20;88.50;;;;;;5012256;28;20513;-73
2021/09/09 06:13:44;;;;;;;12.13;7.15;;;18.20;88.50;;;;;;5012151;28;20029;-74
2021/09/09 06:16:10;;;;;;;16.17;7.57;;;18.20;88.60;;;;;;5012421;28;20029;-74
2021/09/09 06:18:36;;;;;;;12.82;7.47;;;18.20;88.60;;;;;;5011797;28;20021;-75
2021/09/09 06:21:02;;;;;;;14.35;7.50;;;18.20;88.60;;;;;;5012250;28;20025;-73
2021/09/09 06:23:29;;;;;;;12.50;7.00;;;18.20;88.60;;;;;;5011780;28;20037;-74
2021/09/09 06:25:54;;;;;;;15.43;8.07;;;18.30;88.60;;;;;;5012501;28;20049;-73
2021/09/09 06:28:20;;;;;;;15.43;7.78;;;18.30;88.60;;;;;;5011689;28;20061;-73
2021/09/09 06:30:46;;;;;;;14.57;7.55;;;18.30;88.60;;;;;;5010898;28;20346;-73
2021/09/09 06:33:11;;;;;;;13.60;7.55;;;18.30;88.60;;;;;;5010920;28;20459;-73
2021/09/09 06:35:38;;;;;;;12.85;7.70;;;18.40;88.50;;;;;;5011593;28;20530;-73
2021/09/09 06:38:04;;;;;;;14.80;8.85;;;18.40;88.50;;;;;;5010442;28;20026;-73
2021/09/09 06:40:29;;;;;;;12.77;7.53;;;18.40;88.40;;;;;;5010202;28;20018;-73
2021/09/09 06:42:55;;;;;;;12.32;7.32;;;18.50;88.40;;;;;;5010873;28;20515;-73
2021/09/09 06:45:21;;;;;;;13.60;7.25;;;18.50;88.50;;;;;;5011469;28;20442;-73
2021/09/09 06:47:47;;;;;;;14.48;7.85;;;18.50;88.40;;;;;;5011936;28;20061;-73
2021/09/09 06:50:13;;;;;;;16.80;8.57;;;18.60;88.40;;;;;;5010647;28;20025;-73
2021/09/09 06:52:39;;;;;;;13.48;7.88;;;18.60;88.30;;;;;;5009978;28;20403;-73
2021/09/09 06:55:06;;;;;;;13.93;8.05;;;18.60;88.30;;;;;;5011968;28;20026;-73
2021/09/09 06:57:31;;;;;;;13.13;7.47;;;18.60;88.40;;;;;;5011300;28;20076;-73
2021/09/09 06:59:57;;;;;;;15.18;8.60;;;18.70;88.40;;;;;;5011981;28;20026;-73
2021/09/09 07:02:23;;;;;;;15.18;8.63;;;18.70;88.40;;;;;;5010967;28;20022;-73
2021/09/09 07:04:48;;;;;;;14.30;8.45;;;18.80;88.30;;;;;;5011739;28;20104;-73
2021/09/09 07:07:15;;;;;;;14.13;8.20;;;18.80;88.30;;;;;;5011755;28;20103;-72
2021/09/09 07:09:40;;;;;;;14.57;8.70;;;18.80;88.20;;;;;;5011227;28;20026;-72
2021/09/09 07:12:06;;;;;;;14.77;8.27;;;18.80;88.30;;;;;;5010730;28;20025;-72
2021/09/09 07:14:32;;;;;;;14.18;8.10;;;18.80;88.30;;;;;;5011192;28;20120;-72
2021/09/09 07:16:58;;;;;;;13.65;7.57;;;18.90;88.40;;;;;;5027029;28;20049;-72
2021/09/09 07:19:23;;;;;;;13.23;7.88;;;18.90;88.30;;;;;;5026304;28;20045;-72
2021/09/09 07:21:52;;;;;;;12.88;7.63;;;18.90;88.20;;;;;;5011921;28;20053;-72
2021/09/09 07:24:18;;;;;;;14.52;8.65;;;19.00;88.20;;;;;;5011788;28;20026;-72
2021/09/09 07:26:45;;;;;;;15.25;8.32;;;19.00;88.00;;;;;;5026255;28;20025;-72
2021/09/09 07:29:13;;;;;;;14.77;8.50;;;19.00;87.70;;;;;;5011728;28;20029;-72
2021/09/09 07:31:38;;;;;;;16.02;8.23;;;19.10;87.70;;;;;;5010667;28;20048;-72
2021/09/09 07:34:04;;;;;;;14.80;7.22;;;19.10;87.70;;;;;;5011773;28;20459;-73
2021/09/09 07:36:30;;;;;;;17.05;8.88;;;19.10;87.70;;;;;;5010954;28;20037;-72
2021/09/09 07:38:55;;;;;;;16.02;9.70;;;19.10;87.70;;;;;;5011293;28;20029;-72
2021/09/09 07:41:21;;;;;;;17.65;8.90;;;19.20;87.70;;;;;;5011096;28;20033;-72
2021/09/09 07:43:47;;;;;;;15.95;8.98;;;19.20;87.60;;;;;;5011455;28;20507;-73
2021/09/09 07:46:12;;;;;;;17.40;8.00;;;19.30;87.60;;;;;;5011875;28;20382;-73
2021/09/09 07:48:38;;;;;;;16.90;9.32;;;19.30;87.50;;;;;;5011465;28;20045;-72
2021/09/09 07:51:04;;;;;;;13.75;8.10;;;19.30;87.40;;;;;;5014559;28;20029;-72
2021/09/09 07:53:29;;;;;;;13.82;9.18;;;19.40;87.40;;;;;;5014346;28;20033;-72
2021/09/09 07:55:55;;;;;;;16.02;9.93;;;19.40;87.30;;;;;;5014873;28;20076;-73
2021/09/09 07:58:21;;;;;;;17.30;9.57;;;19.40;87.10;;;;;;5014618;28;20466;-73
2021/09/09 08:00:47;;;;;;;14.40;7.93;;;19.50;87.00;;;;;;5014360;28;20025;-73
2021/09/09 08:03:12;;;;;;;13.30;7.50;;;19.50;86.80;;;;;;5014394;28;20360;-72
2021/09/09 08:05:38;;;;;;;15.57;8.93;;;19.60;86.60;;;;;;5014280;28;20026;-73
2021/09/09 08:08:05;;;;;;;13.38;8.10;;;19.70;86.50;;;;;;5013266;28;20545;-73
2021/09/09 08:10:31;;;;;;;13.88;8.07;;;19.70;86.40;;;;;;5013612;28;20382;-72
2021/09/09 08:12:56;;;;;;;11.10;6.45;;;19.80;86.40;;;;;;5014557;28;20037;-73
2021/09/09 08:15:22;;;;;;;17.77;9.75;;;19.90;86.20;;;;;;5014353;28;20061;-73
2021/09/09 08:17:48;;;;;;;16.98;9.02;;;19.90;86.10;;;;;;5014435;28;20018;-72
2021/09/09 08:20:14;;;;;;;17.05;9.13;;;19.90;86.00;;;;;;5014440;28;20022;-73
2021/09/09 08:22:40;;;;;;;16.38;9.00;;;19.90;86.50;;;;;;5013243;28;20046;-72
2021/09/09 08:25:06;;;;;;;15.25;9.07;;;20.00;86.00;;;;;;5029405;28;20374;-73
2021/09/09 08:27:32;;;;;;;17.38;8.55;;;20.00;86.00;;;;;;5013531;28;20022;-73
2021/09/09 08:29:58;;;;;;;12.80;8.07;;;20.00;86.00;;;;;;5014248;28;20033;-72
2021/09/09 08:32:25;;;;;;;14.00;7.75;;;20.10;86.10;;;;;;5028714;28;20088;-73
2021/09/09 08:34:52;;;;;;;12.80;7.05;;;20.10;86.00;;;;;;5014357;28;20080;-72
2021/09/09 08:37:18;;;;;;;14.40;8.65;;;20.20;86.60;;;;;;5013984;28;20426;-73
2021/09/09 08:39:44;;;;;;;13.60;7.63;;;20.20;85.80;;;;;;5013606;28;20026;-72
2021/09/09 08:42:12;;;;;;;12.60;7.50;;;20.20;85.60;;;;;;5014146;28;20468;-72
2021/09/09 08:44:38;;;;;;;11.63;6.90;;;20.30;85.60;;;;;;5012122;28;20025;-72
2021/09/09 08:47:07;;;;;;;13.18;7.15;;;20.30;85.40;;;;;;5013759;28;20029;-72
2021/09/09 08:49:33;;;;;;;12.35;7.22;;;20.40;85.20;;;;;;5012965;28;20088;-73
2021/09/09 08:51:58;;;;;;;12.73;7.40;;;20.40;84.90;;;;;;5013847;28;20018;-72
2021/09/09 08:54:25;;;;;;;12.90;6.95;;;20.50;84.80;;;;;;5028729;28;20076;-72
2021/09/09 08:56:51;;;;;;;12.77;7.32;;;20.50;84.70;;;;;;5013642;28;20022;-73
2021/09/09 08:59:17;;;;;;;11.07;6.47;;;20.60;84.50;;;;;;5028802;28;20462;-72
2021/09/09 09:02:01;;;;;;;10.57;6.78;;;20.60;84.40;;;;;;5013012;28;20029;-73
2021/09/09 09:04:28;;;;;;;11.80;5.50;;;20.70;83.90;;;;;;5012840;28;20454;-73
2021/09/09 09:06:54;;;;;;;10.73;5.70;;;20.80;83.80;;;;;;5013546;28;20033;-73
2021/09/09 09:09:24;;;;;;;11.02;7.30;;;20.90;83.60;;;;;;5013515;28;20018;-72
2021/09/09 09:11:50;;;;;;;12.98;6.03;;;20.90;83.40;;;;;;5012802;28;20025;-72
2021/09/09 09:14:18;;;;;;;14.57;6.68;;;21.00;83.20;;;;;;5013504;28;20095;-73
2021/09/09 09:16:50;;;;;;;13.10;6.78;;;21.00;82.80;;;;;;5012765;28;20086;-73
2021/09/09 09:19:41;;;;;;;8.18;5.70;;;21.20;82.70;;;;;;5013425;28;20109;-72
2021/09/09 09:22:13;;;;;;;12.32;6.57;;;21.30;82.30;;;;;;5015131;28;20053;-73
2021/09/09 09:24:47;;;;;;;10.88;6.68;;;21.50;82.00;;;;;;5011122;28;20022;-73
2021/09/09 09:27:19;;;;;;;12.85;5.95;;;21.50;81.80;;;;;;5013279;28;20026;-73
2021/09/09 09:30:09;;;;;;;12.02;6.95;;;21.50;81.80;;;;;;5012623;28;20057;-73
2021/09/09 09:32:36;;;;;;;11.13;6.10;;;21.60;81.70;;;;;;5011165;28;20026;-73
2021/09/09 09:35:17;;;;;;;7.95;4.68;;;21.60;81.50;;;;;;5012935;28;20053;-73
2021/09/09 09:37:54;;;;;;;12.45;6.60;;;21.70;81.40;;;;;;5012384;28;20014;-73
2021/09/09 09:40:28;;;;;;;12.02;6.80;;;21.80;81.20;;;;;;5011717;28;20022;-73
2021/09/09 09:42:56;;;;;;;12.02;6.63;;;22.00;81.50;;;;;;5012520;28;20033;-72
2021/09/09 09:45:22;;;;;;;12.75;7.38;;;22.10;80.50;;;;;;5012823;28;20030;-73
2021/09/09 09:47:48;;;;;;;10.52;6.68;;;22.20;80.80;;;;;;5012164;28;20501;-73
2021/09/09 09:50:22;;;;;;;12.10;6.50;;;22.40;80.00;;;;;;5012833;28;20054;-73
2021/09/09 09:52:48;;;;;;;9.48;6.03;;;22.40;79.80;;;;;;5012105;28;20466;-73
2021/09/09 09:55:14;;;;;;;15.57;6.43;;;22.50;79.80;;;;;;5012648;28;20026;-72
2021/09/09 09:57:56;;;;;;;13.13;7.32;;;22.50;79.70;;;;;;5011760;28;20443;-73
2021/09/09 10:00:23;;;;;;;9.77;5.55;;;22.60;79.60;;;;;;5012922;28;20105;-73
2021/09/09 10:02:49;;;;;;;9.90;5.40;;;22.70;79.30;;;;;;5011501;28;20076;-73
2021/09/09 10:05:15;;;;;;;11.38;5.55;;;22.80;78.90;;;;;;5012487;28;20440;-74
2021/09/09 10:07:41;;;;;;;9.82;5.90;;;22.90;78.50;;;;;;5011800;28;20106;-73
2021/09/09 10:10:07;;;;;;;9.95;5.28;;;23.00;78.30;;;;;;5011154;28;20068;-73
2021/09/09 10:12:33;;;;;;;8.65;5.53;;;23.00;78.60;;;;;;5011202;28;20026;-73
2021/09/09 10:15:01;;;;;;;9.15;5.20;;;23.00;77.90;;;;;;5012296;28;20483;-73
2021/09/09 10:17:28;;;;;;;10.07;5.63;;;23.00;77.80;;;;;;5027686;28;20026;-73
2021/09/09 10:19:53;;;;;;;11.10;6.28;;;23.00;77.60;;;;;;5011565;28;20029;-73
2021/09/09 10:22:21;;;;;;;10.77;6.38;;;23.00;77.50;;;;;;5012352;28;20124;-73
2021/09/09 10:25:04;;;;;;;11.80;7.22;;;23.00;76.90;;;;;;5011520;28;20022;-74
2021/09/09 10:27:34;;;;;;;11.65;6.85;;;23.00;76.80;;;;;;5012154;28;20033;-73
2021/09/09 10:30:04;;;;;;;10.95;6.63;;;23.00;76.70;;;;;;5012011;28;20097;-73
2021/09/09 10:32:33;;;;;;;11.30;6.57;;;23.00;76.50;;;;;;5012212;28;20025;-74
2021/09/09 10:35:16;;;;;;;9.18;5.20;;;23.10;76.70;;;;;;5012113;28;20028;-73
2021/09/09 10:37:46;;;;;;;7.63;5.10;;;23.10;76.70;;;;;;5011458;28;20030;-73
2021/09/09 10:40:32;;;;;;;11.38;6.07;;;23.10;77.30;;;;;;5011666;28;20022;-73
2021/09/09 10:43:02;;;;;;;10.10;5.65;;;23.20;76.80;;;;;;5012299;28;20073;-73
2021/09/09 10:45:45;;;;;;;9.13;4.82;;;23.40;76.90;;;;;;5011741;28;20386;-73
2021/09/09 10:48:14;;;;;;;9.50;5.35;;;23.50;76.80;;;;;;5011667;28;20033;-73
2021/09/09 10:50:56;;;;;;;11.52;5.47;;;23.60;76.50;;;;;;5011241;28;20459;-73
2021/09/09 10:53:33;;;;;;;7.82;4.65;;;23.80;76.20;;;;;;5027400;28;20344;-73
2021/09/09 10:56:08;;;;;;;9.60;6.00;;;23.90;75.90;;;;;;5012168;28;20022;-73
2021/09/09 10:58:33;;;;;;;6.72;4.00;;;23.90;75.70;;;;;;5012069;28;20125;-73
2021/09/09 11:01:02;;;;;;;11.63;6.20;;;23.90;75.70;;;;;;5012578;28;20356;-73
2021/09/09 11:03:47;;;;;;;8.18;5.35;;;23.90;75.40;;;;;;5011644;28;20459;-73
2021/09/09 11:06:24;;;;;;;9.98;5.53;;;24.00;75.10;;;;;;5011803;28;20030;-73
2021/09/09 11:08:53;;;;;;;7.03;4.00;;;24.10;75.10;;;;;;5011232;28;20033;-73
2021/09/09 11:11:30;;;;;;;12.55;6.47;;;24.10;74.90;;;;;;5011851;28;20418;-73
2021/09/09 11:13:57;;;;;;;11.48;6.13;;;24.10;74.60;;;;;;5011142;28;20033;-73
2021/09/09 11:16:24;;;;;;;9.80;5.40;;;24.20;74.70;;;;;;5011633;28;20033;-74
2021/09/09 11:18:51;;;;;;;10.65;5.15;;;24.20;74.70;;;;;;5009410;28;20030;-73
2021/09/09 11:21:21;;;;;;;10.13;6.32;;;24.30;74.60;;;;;;5011521;28;20050;-73
2021/09/09 11:23:48;;;;;;;8.80;5.25;;;24.40;74.50;;;;;;5013496;28;20053;-73
2021/09/09 11:26:19;;;;;;;9.68;5.60;;;24.40;74.40;;;;;;5015326;28;20033;-73
2021/09/09 11:28:47;;;;;;;6.15;3.70;;;24.50;74.50;;;;;;5014742;28;20026;-73
2021/09/09 11:31:19;;;;;;;11.60;6.35;;;24.60;74.50;;;;;;5015585;28;20164;-73
2021/09/09 11:33:46;;;;;;;10.15;5.80;;;24.80;74.30;;;;;;5014450;28;20113;-73
2021/09/09 11:36:12;;;;;;;8.63;5.22;;;24.80;74.10;;;;;;5015227;28;20029;-73
2021/09/09 11:38:37;;;;;;;12.95;6.68;;;24.90;73.90;;;;;;5014476;28;20018;-73
2021/09/09 11:41:08;;;;;;;8.27;5.15;;;25.00;73.60;;;;;;5015341;28;20030;-73
2021/09/09 11:43:34;;;;;;;8.90;5.35;;;25.20;73.60;;;;;;5014980;28;20033;-73
2021/09/09 11:46:00;;;;;;;12.52;6.55;;;25.30;73.30;;;;;;5014446;28;20030;-73
2021/09/09 11:48:25;;;;;;;8.77;6.00;;;25.30;72.90;;;;;;5014897;28;20038;-73
2021/09/09 11:50:51;;;;;;;8.80;5.00;;;25.50;72.90;;;;;;5014357;28;20025;-73
2021/09/09 11:53:26;;;;;;;11.07;5.82;;;25.70;72.70;;;;;;5015061;28;20033;-73
2021/09/09 11:55:53;;;;;;;10.07;5.68;;;25.90;72.30;;;;;;5014319;28;20034;-73
2021/09/09 11:58:37;;;;;;;13.00;7.10;;;25.90;71.90;;;;;;5013389;28;20351;-74
2021/09/09 12:01:08;;;;;;;11.65;6.47;;;26.00;71.50;;;;;;5014528;28;20073;-73
2021/09/09 12:03:34;;;;;;;;;;;26.10;71.40;;;;;;5015080;28;20101;-73
2021/09/09 12:06:00;;;;;;;12.85;7.85;;;26.10;71.30;;;;;;5014164;28;19909;-73
2021/09/09 12:08:27;;;;;;;11.68;6.85;;;26.20;71.20;;;;;;5014373;28;20561;-73
2021/09/09 12:11:09;;;;;;;8.88;5.65;;;26.20;71.20;;;;;;5013944;28;20042;-73
2021/09/09 12:13:34;;;;;;;10.43;5.20;;;26.20;71.10;;;;;;5014602;28;20022;-73
2021/09/09 12:16:23;;;;;;;13.57;7.97;;;26.20;71.00;;;;;;5013753;28;20113;-73
2021/09/09 12:19:12;;;;;;;14.45;8.57;;;26.20;71.00;;;;;;5013620;28;20022;-73
2021/09/09 12:21:52;;;;;;;12.20;7.88;;;26.20;71.00;;;;;;5014262;28;20050;-74
2021/09/09 12:24:21;;;;;;;13.18;6.78;;;26.30;70.90;;;;;;5014334;28;20111;-73
2021/09/09 12:27:00;;;;;;;13.75;8.05;;;26.30;70.70;;;;;;5013956;28;20038;-73
2021/09/09 12:29:38;;;;;;;11.18;6.85;;;26.40;70.60;;;;;;5012904;28;20026;-74
2021/09/09 12:32:28;;;;;;;13.32;8.32;;;26.40;70.50;;;;;;5013586;28;20053;-73
2021/09/09 12:35:19;;;;;;;12.20;7.32;;;26.40;70.60;;;;;;5012866;28;20058;-73
2021/09/09 12:38:02;;;;;;;12.57;7.05;;;26.40;70.70;;;;;;5013814;28;20018;-73
2021/09/09 12:40:44;;;;;;;15.15;8.60;;;26.50;70.80;;;;;;5014062;28;20021;-74